createdAt,value
2023-04-12T00:00:54.626Z,81.00
2023-04-12T00:03:22.060Z,80.30
2023-04-12T00:05:54.840Z,80.00
2023-04-12T00:08:26.646Z,79.90
2023-04-12T00:10:53.675Z,79.80
2023-04-12T00:13:20.488Z,79.80
2023-04-12T00:15:47.273Z,79.70
2023-04-12T00:18:14.060Z,79.70
2023-04-12T00:20:42.496Z,79.70
2023-04-12T00:23:10.035Z,79.70
2023-04-12T00:25:39.252Z,79.80
2023-04-12T00:28:06.520Z,80.90
2023-04-12T00:30:33.295Z,80.30
2023-04-12T00:33:00.179Z,80.60
2023-04-12T00:35:26.958Z,80.50
2023-04-12T00:37:54.693Z,80.50
2023-04-12T00:40:21.423Z,80.70
2023-04-12T00:42:48.176Z,80.90
2023-04-12T00:45:14.997Z,81.00
2023-04-12T00:47:44.006Z,81.00
2023-04-12T00:50:11.408Z,81.10
2023-04-12T00:52:39.160Z,81.10
2023-04-12T00:55:07.237Z,81.10
2023-04-12T00:57:36.669Z,81.30
2023-04-12T01:00:14.276Z,81.20
2023-04-12T01:02:48.299Z,81.70
2023-04-12T01:05:22.404Z,81.70
2023-04-12T01:08:15.588Z,81.80
2023-04-12T01:11:04.341Z,81.80
2023-04-12T01:13:46.006Z,81.30
2023-04-12T01:16:19.882Z,81.20
2023-04-12T01:18:50.550Z,81.10
2023-04-12T01:21:21.100Z,81.00
2023-04-12T01:24:16.147Z,81.00
2023-04-12T01:26:45.631Z,80.80
2023-04-12T01:29:16.669Z,80.70
2023-04-12T01:32:01.397Z,80.70
2023-04-12T01:34:32.318Z,80.80
2023-04-12T01:37:01.321Z,81.00
2023-04-12T01:39:32.399Z,81.10
2023-04-12T01:41:59.072Z,81.10
2023-04-12T01:44:25.747Z,81.30
2023-04-12T01:46:52.992Z,81.40
2023-04-12T01:49:19.690Z,81.50
2023-04-12T01:51:52.832Z,81.60
2023-04-12T01:54:30.511Z,81.80
2023-04-12T01:56:58.791Z,81.80
2023-04-12T01:59:44.359Z,82.80
2023-04-12T02:02:14.170Z,82.00
2023-04-12T02:04:41.688Z,82.00
2023-04-12T02:07:09.407Z,82.20
2023-04-12T02:09:39.468Z,82.20
2023-04-12T02:12:06.644Z,82.20
2023-04-12T02:14:33.519Z,82.30
2023-04-12T02:17:02.282Z,82.40
2023-04-12T02:19:29.336Z,81.80
2023-04-12T02:21:56.107Z,81.60
2023-04-12T02:24:22.924Z,81.40
2023-04-12T02:26:52.400Z,81.30
2023-04-12T02:29:19.705Z,81.20
2023-04-12T02:31:47.005Z,81.10
2023-04-12T02:34:16.048Z,81.10
2023-04-12T02:36:43.996Z,81.10
2023-04-12T02:39:10.677Z,81.20
2023-04-12T02:41:37.441Z,81.20
2023-04-12T02:44:04.141Z,82.30
2023-04-12T02:46:31.185Z,81.90
2023-04-12T02:48:58.140Z,82.00
2023-04-12T02:51:24.932Z,82.20
2023-04-12T02:53:51.723Z,82.20
2023-04-12T02:56:19.993Z,82.30
2023-04-12T02:58:46.786Z,82.30
2023-04-12T03:01:14.489Z,82.40
2023-04-12T03:03:41.419Z,82.40
2023-04-12T03:06:09.547Z,82.40
2023-04-12T03:08:36.240Z,82.50
2023-04-12T03:11:02.924Z,82.40
2023-04-12T03:13:29.619Z,82.30
2023-04-12T03:15:57.785Z,82.30
2023-04-12T03:18:25.155Z,82.20
2023-04-12T03:20:52.834Z,82.20
2023-04-12T03:23:21.560Z,82.20
2023-04-12T03:25:48.356Z,82.30
2023-04-12T03:28:15.058Z,82.10
2023-04-12T03:30:41.776Z,81.70
2023-04-12T03:33:08.604Z,82.30
2023-04-12T03:35:35.385Z,81.30
2023-04-12T03:38:02.292Z,81.10
2023-04-12T03:40:29.069Z,81.00
2023-04-12T03:42:55.735Z,80.90
2023-04-12T03:45:24.129Z,81.00
2023-04-12T03:47:50.982Z,80.90
2023-04-12T03:50:17.851Z,80.70
2023-04-12T03:52:44.508Z,80.80
2023-04-12T03:55:12.241Z,80.90
2023-04-12T03:57:39.089Z,81.00
2023-04-12T04:00:08.498Z,81.20
2023-04-12T04:02:35.616Z,81.40
2023-04-12T04:05:03.972Z,81.60
2023-04-12T04:07:31.860Z,81.60
2023-04-12T04:09:58.623Z,81.60
2023-04-12T04:12:25.596Z,81.80
2023-04-12T04:14:52.254Z,81.70
2023-04-12T04:17:19.119Z,81.60
2023-04-12T04:19:45.846Z,81.80
2023-04-12T04:22:12.564Z,81.50
2023-04-12T04:24:40.127Z,81.50
2023-04-12T04:27:06.901Z,81.30
2023-04-12T04:29:33.824Z,81.10
2023-04-12T04:32:00.784Z,81.00
2023-04-12T04:34:27.997Z,80.80
2023-04-12T04:36:56.052Z,80.70
2023-04-12T04:39:23.006Z,80.40
2023-04-12T04:41:55.277Z,79.40
2023-04-12T04:44:22.531Z,79.50
2023-04-12T04:46:49.394Z,79.40
2023-04-12T04:49:16.389Z,79.30
2023-04-12T04:51:43.200Z,78.90
2023-04-12T04:54:09.982Z,79.00
2023-04-12T04:56:36.634Z,79.40
2023-04-12T04:59:03.390Z,79.00
2023-04-12T05:01:30.222Z,78.80
2023-04-12T05:03:57.384Z,78.70
2023-04-12T05:06:24.772Z,78.60
2023-04-12T05:08:52.510Z,78.60
2023-04-12T05:11:19.998Z,78.70
2023-04-12T05:13:46.759Z,78.90
2023-04-12T05:16:13.548Z,78.70
2023-04-12T05:18:40.367Z,78.60
2023-04-12T05:21:07.318Z,78.30
2023-04-12T05:23:37.853Z,78.50
2023-04-12T05:26:05.000Z,78.30
2023-04-12T05:28:31.708Z,78.30
2023-04-12T05:30:58.625Z,78.50
2023-04-12T05:33:26.560Z,78.70
2023-04-12T05:35:53.308Z,78.70
2023-04-12T05:38:20.338Z,78.20
2023-04-12T05:40:49.948Z,78.20
2023-04-12T05:43:17.783Z,78.60
2023-04-12T05:45:44.480Z,78.80
2023-04-12T05:48:11.225Z,78.20
2023-04-12T05:50:37.991Z,78.30
2023-04-12T05:53:04.647Z,78.00
2023-04-12T05:55:31.365Z,77.80
2023-04-12T05:57:58.618Z,78.00
2023-04-12T06:00:26.622Z,78.60
2023-04-12T06:02:54.037Z,77.80
2023-04-12T06:05:21.605Z,77.70
2023-04-12T06:07:49.183Z,77.50
2023-04-12T06:10:17.338Z,77.80
2023-04-12T06:12:44.960Z,77.60
2023-04-12T06:15:12.214Z,77.50
2023-04-12T06:17:39.281Z,77.60
2023-04-12T06:20:10.207Z,77.50
2023-04-12T06:22:37.741Z,77.50
2023-04-12T06:25:05.197Z,77.60
2023-04-12T06:27:32.228Z,77.50
2023-04-12T06:29:59.238Z,77.20
2023-04-12T06:32:27.597Z,77.30
2023-04-12T06:34:54.416Z,77.30
2023-04-12T06:37:21.861Z,77.40
2023-04-12T06:39:48.635Z,77.50
2023-04-12T06:42:15.654Z,77.10
2023-04-12T06:44:42.340Z,77.00
2023-04-12T06:47:09.516Z,77.20
2023-04-12T06:49:36.457Z,77.10
2023-04-12T06:52:03.261Z,77.20
2023-04-12T06:54:29.990Z,77.10
2023-04-12T06:56:57.767Z,77.00
2023-04-12T06:59:24.812Z,77.00
2023-04-12T07:01:52.054Z,77.20
2023-04-12T07:04:18.914Z,77.60
2023-04-12T07:06:45.941Z,77.20
2023-04-12T07:09:12.688Z,77.50
2023-04-12T07:11:39.558Z,77.80
2023-04-12T07:14:06.536Z,76.50
2023-04-12T07:16:34.261Z,76.20
2023-04-12T07:19:01.133Z,76.40
2023-04-12T07:21:28.227Z,77.00
2023-04-12T07:23:56.968Z,76.80
2023-04-12T07:26:23.980Z,77.20
2023-04-12T07:28:51.193Z,78.10
2023-04-12T07:31:17.966Z,78.60
2023-04-12T07:33:45.005Z,77.80
2023-04-12T07:36:12.406Z,79.80
2023-04-12T07:38:39.519Z,80.50
2023-04-12T07:41:06.553Z,79.60
2023-04-12T07:43:33.261Z,80.30
2023-04-12T07:46:00.225Z,82.30
2023-04-12T07:48:27.847Z,83.10
2023-04-12T07:50:54.879Z,81.90
2023-04-12T07:53:23.753Z,81.70
2023-04-12T07:55:51.122Z,81.70
2023-04-12T07:58:18.079Z,81.60
2023-04-12T08:00:45.338Z,81.70
2023-04-12T08:03:12.972Z,81.40
2023-04-12T08:05:40.748Z,80.80
2023-04-12T08:08:08.772Z,80.50
2023-04-12T08:10:38.951Z,80.00
2023-04-12T08:13:05.907Z,79.90
2023-04-12T08:15:32.887Z,79.90
2023-04-12T08:17:59.745Z,80.40
2023-04-12T08:20:27.898Z,79.80
2023-04-12T08:22:56.338Z,80.80
2023-04-12T08:25:23.180Z,79.50
2023-04-12T08:27:50.433Z,80.30
2023-04-12T08:30:17.332Z,80.00
2023-04-12T08:32:44.063Z,81.40
2023-04-12T08:35:11.447Z,80.40
2023-04-12T08:37:38.202Z,80.10
2023-04-12T08:40:07.287Z,79.20
2023-04-12T08:42:37.598Z,79.00
2023-04-12T08:45:08.939Z,79.00
2023-04-12T08:47:41.095Z,79.00
2023-04-12T08:50:09.439Z,78.50
2023-04-12T08:52:37.087Z,78.40
2023-04-12T08:55:07.054Z,78.10
2023-04-12T08:57:35.638Z,78.30
2023-04-12T09:00:03.637Z,77.70
2023-04-12T09:02:31.299Z,79.40
2023-04-12T09:04:58.564Z,78.40
2023-04-12T09:07:30.176Z,78.90
2023-04-12T09:09:58.356Z,79.80
2023-04-12T09:12:27.377Z,79.30
2023-04-12T09:15:10.332Z,78.40
2023-04-12T09:17:38.680Z,77.90
2023-04-12T09:20:17.871Z,77.40
2023-04-12T09:22:46.374Z,77.20
2023-04-12T09:25:14.248Z,77.60
2023-04-12T09:27:47.891Z,77.20
2023-04-12T09:30:18.657Z,78.30
2023-04-12T09:32:45.616Z,77.70
2023-04-12T09:35:12.354Z,78.40
2023-04-12T09:37:39.657Z,77.20
2023-04-12T09:40:08.185Z,76.70
2023-04-12T09:42:35.587Z,76.50
2023-04-12T09:45:20.287Z,77.00
2023-04-12T09:47:47.038Z,76.50
2023-04-12T09:50:22.819Z,76.90
2023-04-12T09:52:50.018Z,77.80
2023-04-12T09:55:16.955Z,77.20
2023-04-12T09:57:49.883Z,77.20
2023-04-12T10:01:01.035Z,78.10
2023-04-12T10:03:40.173Z,78.10
2023-04-12T10:06:19.145Z,78.50
2023-04-12T10:08:46.626Z,78.00
2023-04-12T10:11:13.417Z,78.20
2023-04-12T10:13:40.126Z,77.90
2023-04-12T10:16:07.161Z,78.60
2023-04-12T10:18:35.878Z,78.30
2023-04-12T10:21:02.922Z,78.30
2023-04-12T10:23:31.336Z,78.40
2023-04-12T10:25:59.200Z,78.10
2023-04-12T10:28:38.597Z,77.40
2023-04-12T10:31:29.188Z,77.20
2023-04-12T10:33:56.706Z,76.90
2023-04-12T10:36:53.543Z,77.00
2023-04-12T10:39:44.086Z,77.70
2023-04-12T10:42:30.318Z,78.10
2023-04-12T10:48:26.887Z,78.70
2023-04-12T10:51:26.833Z,78.60
2023-04-12T10:54:16.920Z,78.60
2023-04-12T10:56:47.004Z,78.10
2023-04-12T10:59:14.194Z,78.40
2023-04-12T11:01:42.251Z,78.60
2023-04-12T11:04:31.710Z,78.70
2023-04-12T11:07:12.900Z,78.80
2023-04-12T11:09:43.696Z,79.00
2023-04-12T11:12:16.734Z,79.50
2023-04-12T11:14:43.556Z,79.60
2023-04-12T11:17:13.420Z,79.80
2023-04-12T11:20:01.127Z,79.60
2023-04-12T11:22:30.371Z,79.10
2023-04-12T11:24:59.761Z,79.30
2023-04-12T11:27:28.020Z,78.90
2023-04-12T11:29:57.072Z,78.50
2023-04-12T11:32:27.397Z,78.20
2023-04-12T11:34:56.405Z,78.20
2023-04-12T11:37:23.447Z,78.00
2023-04-12T11:39:52.022Z,77.80
2023-04-12T11:42:25.973Z,77.70
2023-04-12T11:44:58.613Z,77.40
2023-04-12T11:47:29.152Z,77.20
2023-04-12T11:49:57.428Z,77.00
2023-04-12T11:52:31.629Z,76.80
2023-04-12T11:55:02.177Z,76.90
2023-04-12T11:57:29.335Z,77.10
2023-04-12T11:59:57.161Z,77.00
2023-04-12T12:02:25.212Z,77.70
2023-04-12T12:04:53.436Z,76.60
2023-04-12T12:07:21.366Z,84.30
2023-04-12T12:09:48.765Z,82.10
2023-04-12T12:12:16.161Z,78.10
2023-04-12T12:14:44.509Z,78.00
2023-04-12T12:17:12.573Z,78.00
2023-04-12T12:19:40.640Z,78.60
2023-04-12T12:22:13.321Z,78.50
2023-04-12T12:25:00.751Z,78.90
2023-04-12T12:27:30.735Z,77.90
2023-04-12T12:30:01.192Z,76.90
2023-04-12T12:32:34.901Z,75.30
2023-04-12T12:35:01.758Z,71.80
2023-04-12T12:37:28.880Z,70.60
2023-04-12T12:40:14.384Z,69.70
2023-04-12T12:42:48.593Z,69.30
2023-04-12T12:45:16.132Z,70.00
2023-04-12T12:47:58.810Z,70.10
2023-04-12T12:50:29.925Z,70.50
2023-04-12T12:52:56.611Z,70.70
2023-04-12T12:55:23.764Z,71.20
2023-04-12T12:58:05.893Z,71.40
2023-04-12T13:00:34.196Z,71.60
2023-04-12T13:03:03.083Z,71.70
2023-04-12T13:05:30.308Z,71.80
2023-04-12T13:07:57.132Z,72.80
2023-04-12T13:10:23.936Z,73.40
2023-04-12T13:12:50.798Z,72.20
2023-04-12T13:15:23.092Z,72.60
2023-04-12T13:17:52.492Z,72.50
2023-04-12T13:20:19.384Z,73.40
2023-04-12T13:22:46.134Z,74.00
2023-04-12T13:25:12.824Z,74.30
2023-04-12T13:27:39.487Z,74.00
2023-04-12T13:30:07.082Z,74.50
2023-04-12T13:32:33.952Z,74.50
2023-04-12T13:35:01.899Z,74.80
2023-04-12T13:37:28.872Z,74.60
2023-04-12T13:39:55.742Z,74.50
2023-04-12T13:42:22.863Z,74.70
2023-04-12T13:44:49.793Z,74.60
2023-04-12T13:47:17.954Z,74.90
2023-04-12T13:49:44.853Z,75.10
2023-04-12T13:52:11.797Z,79.90
2023-04-12T13:54:38.532Z,77.00
2023-04-12T13:57:05.907Z,77.00
2023-04-12T13:59:33.444Z,76.40
2023-04-12T14:02:01.567Z,76.70
2023-04-12T14:04:29.191Z,76.50
2023-04-12T14:06:57.032Z,76.00
2023-04-12T14:09:28.027Z,76.80
2023-04-12T14:11:56.030Z,75.80
2023-04-12T14:14:23.046Z,75.60
2023-04-12T14:16:53.588Z,75.40
2023-04-12T14:19:20.842Z,76.20
2023-04-12T14:21:47.942Z,75.40
2023-04-12T14:24:18.043Z,75.30
2023-04-12T14:26:45.348Z,75.30
2023-04-12T14:29:12.137Z,74.90
2023-04-12T14:31:39.256Z,74.50
2023-04-12T14:34:06.333Z,74.50
2023-04-12T14:36:34.481Z,74.70
2023-04-12T14:39:04.168Z,74.80
2023-04-12T14:41:32.690Z,75.30
2023-04-12T14:44:05.019Z,76.00
2023-04-12T14:46:33.745Z,75.70
2023-04-12T14:49:02.351Z,75.70
2023-04-12T14:51:29.320Z,75.40
2023-04-12T14:53:56.541Z,75.00
2023-04-12T14:56:25.438Z,74.70
2023-04-12T14:58:56.814Z,74.80
2023-04-12T15:01:23.949Z,74.70
2023-04-12T15:03:54.280Z,74.80
2023-04-12T15:06:28.831Z,76.30
2023-04-12T15:08:57.142Z,76.30
2023-04-12T15:11:26.773Z,75.10
2023-04-12T15:13:53.953Z,74.70
2023-04-12T15:16:20.923Z,74.50
2023-04-12T15:18:47.825Z,74.60
2023-04-12T15:21:14.620Z,74.70
2023-04-12T15:23:41.759Z,74.90
2023-04-12T15:26:12.214Z,75.10
2023-04-12T15:28:38.971Z,74.90
2023-04-12T15:31:06.323Z,75.00
2023-04-12T15:33:37.825Z,75.20
2023-04-12T15:36:05.018Z,75.40
2023-04-12T15:38:33.274Z,75.20
2023-04-12T15:41:02.312Z,76.00
2023-04-12T15:43:29.176Z,75.10
2023-04-12T15:45:56.305Z,75.10
2023-04-12T15:48:23.795Z,77.50
2023-04-12T15:50:51.212Z,77.30
2023-04-12T15:53:21.292Z,76.30
2023-04-12T15:55:48.582Z,75.80
2023-04-12T15:58:15.532Z,75.50
2023-04-12T16:00:42.449Z,75.20
2023-04-12T16:03:09.563Z,75.40
2023-04-12T16:05:36.552Z,75.50
2023-04-12T16:08:03.797Z,78.60
2023-04-12T16:10:31.806Z,76.60
2023-04-12T16:12:59.269Z,76.50
2023-04-12T16:15:26.082Z,76.10
2023-04-12T16:17:56.268Z,76.80
2023-04-12T16:20:23.470Z,75.70
2023-04-12T16:22:54.329Z,75.60
2023-04-12T16:25:25.131Z,75.40
2023-04-12T16:27:52.231Z,75.40
2023-04-12T16:30:19.021Z,76.30
2023-04-12T16:32:46.741Z,75.30
2023-04-12T16:35:37.837Z,75.20
2023-04-12T16:38:04.757Z,75.40
2023-04-12T16:40:32.776Z,74.20
2023-04-12T16:42:59.516Z,74.10
2023-04-12T16:45:26.191Z,74.80
2023-04-12T16:47:52.911Z,74.10
2023-04-12T16:50:20.968Z,74.30
2023-04-12T16:52:48.875Z,74.10
2023-04-12T16:55:16.092Z,74.20
2023-04-12T16:57:44.204Z,74.20
2023-04-12T17:00:23.542Z,74.00
2023-04-12T17:02:51.514Z,75.00
2023-04-12T17:05:19.784Z,74.30
2023-04-12T17:07:50.644Z,74.00
2023-04-12T17:10:17.720Z,74.20
2023-04-12T17:12:48.046Z,74.00
2023-04-12T17:15:18.843Z,73.70
2023-04-12T17:17:52.896Z,73.60
2023-04-12T17:20:20.825Z,73.50
2023-04-12T17:22:48.002Z,74.30
2023-04-12T17:25:14.832Z,73.70
2023-04-12T17:27:47.875Z,74.20
2023-04-12T17:30:16.561Z,74.00
2023-04-12T17:32:45.199Z,75.40
2023-04-12T17:35:13.395Z,74.10
2023-04-12T17:37:40.548Z,73.60
2023-04-12T17:40:10.926Z,74.10
2023-04-12T17:42:39.198Z,74.00
2023-04-12T17:45:06.583Z,74.70
2023-04-12T17:47:34.748Z,74.00
2023-04-12T17:50:02.762Z,75.30
2023-04-12T17:52:29.533Z,74.50
2023-04-12T17:54:56.477Z,75.20
2023-04-12T17:57:23.264Z,75.30
2023-04-12T17:59:50.297Z,75.60
2023-04-12T18:02:17.211Z,76.50
2023-04-12T18:04:44.211Z,76.30
2023-04-12T18:07:15.506Z,76.80
2023-04-12T18:09:44.863Z,78.10
2023-04-12T18:12:12.682Z,76.70
2023-04-12T18:14:40.977Z,76.90
2023-04-12T18:17:08.154Z,77.40
2023-04-12T18:19:35.130Z,77.70
2023-04-12T18:22:03.846Z,77.50
2023-04-12T18:24:30.648Z,77.40
2023-04-12T18:26:59.433Z,77.50
2023-04-12T18:29:26.461Z,77.70
2023-04-12T18:31:53.506Z,85.50
2023-04-12T18:34:20.492Z,81.30
2023-04-12T18:36:47.692Z,79.90
2023-04-12T18:39:14.617Z,79.70
2023-04-12T18:41:41.399Z,79.40
2023-04-12T18:44:16.550Z,90.00
2023-04-12T18:46:43.428Z,84.10
2023-04-12T18:49:11.693Z,81.00
2023-04-12T18:51:38.529Z,81.50
2023-04-12T18:54:05.533Z,80.30
2023-04-12T18:56:33.045Z,80.30
2023-04-12T18:59:01.368Z,79.90
2023-04-12T19:01:28.094Z,79.50
2023-04-12T19:03:55.143Z,79.70
2023-04-12T19:06:22.093Z,79.80
2023-04-12T19:08:49.861Z,79.20
2023-04-12T19:11:16.808Z,79.20
2023-04-12T19:13:43.987Z,79.00
2023-04-12T19:16:11.463Z,79.30
2023-04-12T19:18:38.158Z,79.90
2023-04-12T19:21:06.594Z,79.60
2023-04-12T19:23:34.668Z,79.50
2023-04-12T19:26:01.417Z,79.00
2023-04-12T19:28:28.627Z,78.80
2023-04-12T19:30:57.638Z,78.80
2023-04-12T19:33:25.214Z,79.50
2023-04-12T19:35:52.310Z,78.70
2023-04-12T19:38:21.176Z,78.60
2023-04-12T19:40:48.073Z,78.80
2023-04-12T19:43:14.984Z,79.00
2023-04-12T19:45:42.316Z,78.60
2023-04-12T19:48:13.966Z,78.90
2023-04-12T19:50:44.693Z,78.30
2023-04-12T19:53:14.034Z,78.30
2023-04-12T19:55:42.494Z,78.20
2023-04-12T19:58:09.365Z,79.00
2023-04-12T20:00:39.289Z,78.20
2023-04-12T20:03:06.096Z,77.80
2023-04-12T20:05:34.536Z,77.40
2023-04-12T20:08:01.290Z,77.60
2023-04-12T20:10:28.003Z,78.40
2023-04-12T20:12:54.775Z,79.60
2023-04-12T20:15:21.530Z,80.70
2023-04-12T20:17:49.006Z,79.60
2023-04-12T20:20:15.930Z,79.80
2023-04-12T20:22:43.281Z,80.10
2023-04-12T20:25:10.890Z,80.40
2023-04-12T20:27:38.626Z,80.10
2023-04-12T20:30:06.422Z,80.60
2023-04-12T20:32:34.817Z,79.80
2023-04-12T20:35:06.644Z,79.60
2023-04-12T20:37:34.640Z,80.10
2023-04-12T20:40:01.343Z,79.90
2023-04-12T20:42:28.060Z,79.60
2023-04-12T20:44:54.761Z,79.50
2023-04-12T20:47:22.363Z,79.40
2023-04-12T20:49:49.212Z,80.10
2023-04-12T20:52:18.634Z,79.50
2023-04-12T20:54:48.411Z,79.40
2023-04-12T20:57:19.491Z,79.00
2023-04-12T20:59:46.444Z,79.20
2023-04-12T21:02:13.240Z,79.00
2023-04-12T21:04:41.803Z,78.90
2023-04-12T21:07:09.256Z,79.40
2023-04-12T21:09:37.638Z,79.40
2023-04-12T21:12:08.234Z,79.20
2023-04-12T21:14:36.677Z,78.90
2023-04-12T21:17:07.766Z,79.20
2023-04-12T21:19:38.936Z,78.60
2023-04-12T21:22:07.365Z,78.80
2023-04-12T21:24:38.170Z,78.70
2023-04-12T21:27:09.503Z,78.60
2023-04-12T21:29:41.152Z,78.90
2023-04-12T21:32:08.694Z,81.50
2023-04-12T21:34:35.730Z,82.30
2023-04-12T21:37:02.851Z,81.50
2023-04-12T21:39:29.949Z,80.00
2023-04-12T21:41:58.090Z,79.60
2023-04-12T21:44:25.484Z,80.20
2023-04-12T21:46:52.487Z,79.40
2023-04-12T21:49:19.228Z,79.40
2023-04-12T21:51:49.411Z,79.50
2023-04-12T21:54:16.547Z,79.50
2023-04-12T21:56:43.341Z,79.50
2023-04-12T21:59:10.120Z,79.80
2023-04-12T22:01:38.081Z,79.70
2023-04-12T22:04:04.966Z,79.80
2023-04-12T22:06:31.701Z,79.60
2023-04-12T22:09:02.031Z,79.60
2023-04-12T22:11:29.922Z,79.60
2023-04-12T22:13:57.024Z,79.40
2023-04-12T22:16:24.700Z,79.30
2023-04-12T22:18:52.808Z,79.30
2023-04-12T22:21:19.682Z,79.10
2023-04-12T22:23:46.729Z,79.20
2023-04-12T22:26:13.559Z,79.10
2023-04-12T22:28:42.580Z,79.20
2023-04-12T22:31:14.266Z,79.10
2023-04-12T22:33:42.134Z,79.00
2023-04-12T22:36:10.844Z,78.90
2023-04-12T22:38:37.725Z,79.10
2023-04-12T22:41:04.618Z,79.10
2023-04-12T22:43:42.057Z,79.30
2023-04-12T22:46:15.668Z,79.30
2023-04-12T22:48:48.229Z,79.30
2023-04-12T22:51:15.367Z,79.40
2023-04-12T22:53:43.532Z,79.60
2023-04-12T22:56:12.612Z,79.60
2023-04-12T22:58:40.760Z,79.60
2023-04-12T23:01:07.960Z,79.60
2023-04-12T23:03:34.795Z,79.60
2023-04-12T23:06:02.033Z,79.60
2023-04-12T23:08:29.269Z,79.60
2023-04-12T23:11:02.872Z,79.50
2023-04-12T23:13:29.953Z,79.60
2023-04-12T23:15:57.740Z,79.50
2023-04-12T23:18:25.655Z,79.40
2023-04-12T23:20:53.896Z,79.40
2023-04-12T23:23:21.365Z,79.50
2023-04-12T23:25:48.076Z,79.50
2023-04-12T23:28:19.336Z,79.40
2023-04-12T23:30:50.033Z,79.50
2023-04-12T23:33:20.532Z,80.30
2023-04-12T23:35:52.447Z,79.60
2023-04-12T23:38:32.282Z,79.60
2023-04-12T23:41:00.405Z,79.30
2023-04-12T23:43:27.171Z,79.30
2023-04-12T23:45:54.063Z,79.20
2023-04-12T23:48:21.744Z,79.20
2023-04-12T23:50:48.533Z,79.20
2023-04-12T23:53:16.127Z,79.20
2023-04-12T23:55:43.200Z,79.20
2023-04-12T23:58:11.903Z,79.20
